Latest Weather Observations for Deniliquin

IDN60801

Issued at 11:02 pm EDT Sunday 4 December 2016 (issued every 30 minutes, with the page automatically refreshed every 10 minutes)

About weather observations | Map of weather stations | Latest weather observations for NSW | Other Formats
Station Details ID: 074258 Name: DENILIQUIN AIRPORT AWS Lat: -35.56 Lon: 144.95 Height: 94.0 m
Data from the previous 72 hours. | See also: Recent months at Deniliquin
Date/Time
EDT
Temp
°C
App
Temp
°C
Dew
Point
°C
Rel
Hum
%
Delta-T
°C
Wind Press
QNH
hPa
Press
MSL
hPa
Rain since
9am
mm
Dir  Spd
km/h
Gust
km/h
Spd
kts
Gust
kts
04/11:00pm 19.7 19.5 17.7 88 1.2 S 15 19 8 10 1010.6 1010.2 0.0
04/10:30pm 20.0 19.1 16.8 82 1.9 S 17 22 9 12 1010.1 1009.7 0.0
04/10:00pm 21.6 19.7 15.2 67 3.8 SSW 19 24 10 13 1009.9 1009.5 0.0
04/09:30pm 22.4 20.2 14.5 61 4.7 SSE 19 24 10 13 1008.4 1008.0 0.0
04/09:00pm 23.0 20.7 14.0 57 5.3 SSE 19 28 10 15 1008.5 1008.1 0.0
04/08:30pm 23.7 20.7 13.6 53 5.9 SSE 22 32 12 17 1007.8 1007.4 0.0
04/08:00pm 24.5 21.9 13.1 49 6.7 S 19 24 10 13 1007.7 1007.3 0.0
04/07:30pm 25.0 20.9 12.6 46 7.2 SSW 26 32 14 17 1007.6 1007.2 0.0
04/07:00pm 26.8 25.0 13.2 43 8.0 S 15 20 8 11 1007.2 1006.8 0.0
04/06:30pm 26.9 23.8 13.3 43 8.0 SSW 22 28 12 15 1006.7 1006.3 0.0
04/06:00pm 28.2 25.2 12.1 37 9.4 SSW 19 28 10 15 1006.6 1006.2 0.0
04/05:30pm 28.9 26.0 12.3 36 9.7 SSW 19 24 10 13 1006.5 1006.1 0.0
04/05:00pm 29.7 27.9 12.2 34 10.3 WSW 13 17 7 9 1007.5 1007.1 0.0
04/04:30pm 29.4 26.9 12.3 34 10.0 NW 17 22 9 12 1008.3 1007.9 0.0
04/04:00pm 30.6 26.0 11.1 30 11.3 W 26 37 14 20 1008.4 1008.0 0.0
04/03:30pm 32.5 26.8 9.9 25 13.0 NW 30 41 16 22 1008.6 1008.2 0.0
04/03:02pm 33.2 26.4 9.3 23 13.6 WNW 35 54 19 29 1008.0 1007.6 0.0
04/03:00pm 33.3 26.9 9.4 23 13.7 WNW 33 50 18 27 1008.0 1007.6 0.0
04/02:58pm 33.4 27.1 8.8 22 13.9 WNW 32 50 17 27 1008.0 1007.6 0.0
04/02:30pm 34.9 27.4 7.9 19 15.2 NW 37 52 20 28 1007.9 1007.5 0.0
04/02:21pm 35.2 28.1 8.1 19 15.3 NW 35 54 19 29 1008.0 1007.6 0.0
04/02:15pm 35.3 28.6 8.2 19 15.3 NNW 33 54 18 29 1007.9 1007.5 0.0
04/02:00pm 35.8 29.2 7.8 18 15.8 NNW 32 46 17 25 1008.1 1007.7 0.0
04/01:30pm 36.7 29.9 7.7 17 16.4 NNW 33 48 18 26 1008.5 1008.1 0.0
04/01:00pm 36.2 28.7 6.4 16 16.5 N 35 46 19 25 1008.9 1008.5 0.0
04/12:30pm 35.7 28.5 5.1 15 16.5 N 32 44 17 24 1008.9 1008.5 0.0
04/12:00pm 34.5 28.8 5.0 16 15.8 N 24 35 13 19 1009.5 1009.1 0.0
04/11:30am 33.4 27.5 5.9 18 14.9 NNW 26 39 14 21 1010.1 1009.7 0.0
04/11:00am 32.4 25.3 3.4 16 15.0 N 30 41 16 22 1010.5 1010.1 0.0
04/10:30am 32.2 25.4 3.2 16 14.9 N 28 41 15 22 1010.5 1010.1 0.0
04/10:00am 32.3 26.3 3.3 16 14.9 NNE 24 30 13 16 1010.6 1010.2 0.0
04/09:30am 29.3 24.9 2.5 18 13.4 NNE 15 22 8 12 1011.0 1010.7 0.0
04/09:00am 28.2 23.1 3.1 20 12.6 NE 19 24 10 13 1010.7 1010.3 0.0
04/08:30am 26.5 22.0 4.3 24 11.2 NE 17 22 9 12 1010.7 1010.3 0.0
04/08:00am 23.5 19.1 4.9 30 9.3 NE 17 20 9 11 1010.6 1010.2 0.0
04/07:30am 21.9 17.1 4.9 33 8.4 NE 19 24 10 13 1010.7 1010.3 0.0
04/07:00am 20.7 16.2 4.3 34 8.0 NE 17 22 9 12 1010.5 1010.1 0.0
04/06:30am 18.9 15.3 5.0 40 6.8 ENE 13 15 7 8 1010.6 1010.2 0.0
04/06:00am 17.5 14.2 4.8 43 6.1 ENE 11 13 6 7 1010.7 1010.3 0.0
04/05:30am 17.5 14.6 4.5 42 6.2 ENE 9 13 5 7 1010.6 1010.2 0.0
04/05:00am 18.2 14.7 3.7 38 6.8 NE 11 15 6 8 1010.5 1010.1 0.0
04/04:30am 17.9 14.1 4.1 40 6.5 ENE 13 17 7 9 1010.1 1009.7 0.0
04/04:00am 18.3 14.2 4.5 40 6.6 ENE 15 19 8 10 1010.3 1009.9 0.0
04/03:30am 17.4 13.9 5.4 45 5.8 ENE 13 17 7 9 1010.3 1009.9 0.0
04/03:00am 18.2 14.7 5.4 43 6.2 ENE 13 15 7 8 1010.6 1010.2 0.0
04/02:30am 18.0 14.2 5.9 45 5.9 ENE 15 17 8 9 1011.0 1010.7 0.0
04/02:00am 18.9 15.2 6.1 43 6.4 ENE 15 17 8 9 1011.2 1010.9 0.0
04/01:30am 18.4 15.1 6.6 46 5.9 ENE 13 15 7 8 1011.2 1010.9 0.0
04/01:00am 19.2 15.5 6.3 43 6.5 ENE 15 17 8 9 1011.3 1011.0 0.0
04/12:30am 19.2 16.0 6.7 44 6.3 E 13 15 7 8 1011.5 1011.2 0.0
04/12:00am 18.9 16.4 8.0 49 5.6 E 11 13 6 7 1011.7 1011.4 0.0
 
Date/Time
EDT
Temp
°C
App
Temp
°C
Dew
Point
°C
Rel
Hum
%
Delta-T
°C
Wind Press
QNH
hPa
Press
MSL
hPa
Rain since
9am
mm
Dir  Spd
km/h
Gust
km/h
Spd
kts
Gust
kts
03/11:30pm 18.5 15.5 7.9 50 5.4 ESE 13 15 7 8 1012.0 1011.7 0.0
03/11:00pm 19.9 17.7 7.9 46 6.2 E 9 11 5 6 1012.0 1011.7 0.0
03/10:30pm 19.6 17.6 8.6 49 5.8 E 9 13 5 7 1012.3 1012.0 0.0
03/10:00pm 20.5 18.1 6.8 41 7.0 SE 9 11 5 6 1012.2 1011.9 0.0
03/09:30pm 22.7 19.7 6.0 34 8.5 ESE 11 11 6 6 1011.9 1011.6 0.0
03/09:00pm 24.2 21.1 3.5 26 10.2 SSE 9 11 5 6 1011.9 1011.6 0.0
03/08:30pm 25.3 22.0 2.7 23 11.0 SSE 9 11 5 6 1011.8 1011.5 0.0
03/08:00pm 27.5 24.1 1.8 19 12.5 S 9 11 5 6 1011.5 1011.2 0.0
03/07:30pm 30.0 25.6 0.6 15 14.2 SSW 13 15 7 8 1011.2 1010.9 0.0
03/07:00pm 30.9 26.5 0.3 14 14.9 SW 13 19 7 10 1011.1 1010.8 0.0
03/06:30pm 31.0 26.2 0.4 14 14.9 SW 15 22 8 12 1010.9 1010.6 0.0
03/06:00pm 31.7 27.4 1.0 14 15.2 WSW 13 20 7 11 1010.9 1010.6 0.0
03/05:30pm 31.9 27.4 2.1 15 15.0 WNW 15 24 8 13 1011.2 1010.9 0.0
03/05:00pm 31.4 25.9 0.7 14 15.1 W 19 32 10 17 1011.3 1011.0 0.0
03/04:30pm 31.9 26.3 0.1 13 15.5 WNW 19 28 10 15 1011.4 1011.1 0.0
03/04:00pm 32.0 28.0 3.1 16 14.8 WNW 13 20 7 11 1011.6 1011.3 0.0
03/03:30pm 31.5 27.1 2.7 16 14.6 WNW 15 28 8 15 1012.0 1011.7 0.0
03/03:00pm 31.8 25.6 2.0 15 15.0 SW 24 35 13 19 1012.3 1012.0 0.0
03/02:30pm 31.1 26.2 2.3 16 14.5 W 17 32 9 17 1012.7 1012.4 0.0
03/02:00pm 30.7 26.3 2.9 17 14.1 W 15 22 8 12 1012.8 1012.5 0.0
03/01:30pm 30.0 26.0 3.1 18 13.6 W 13 20 7 11 1013.0 1012.7 0.0
03/01:00pm 29.7 25.1 3.6 19 13.3 SW 17 28 9 15 1013.3 1013.0 0.0
03/12:30pm 29.4 26.9 4.8 21 12.8 SE 7 15 4 8 1013.6 1013.3 0.0
03/12:00pm 28.7 25.8 4.9 22 12.3 SSW 9 20 5 11 1013.7 1013.4 0.0
03/11:30am 27.6 25.2 5.2 24 11.6 NW 7 15 4 8 1014.0 1013.7 0.0
03/11:00am 27.0 24.6 5.3 25 11.2 SSW 7 15 4 8 1014.3 1014.0 0.0
03/10:30am 25.9 23.4 6.5 29 10.2 E 9 11 5 6 1014.3 1014.0 0.0
03/10:00am 24.3 22.6 8.3 36 8.6 SE 7 11 4 6 1014.3 1014.0 0.0
03/09:30am 22.6 20.5 8.3 40 7.6 SSE 9 15 5 8 1014.4 1014.1 0.0
03/09:00am 20.6 18.6 8.6 46 6.3 SE 9 17 5 9 1014.1 1013.8 0.0
03/08:30am 18.7 15.9 8.4 51 5.3 SE 13 17 7 9 1014.1 1013.8 0.0
03/08:00am 17.5 14.7 8.4 55 4.7 SE 13 17 7 9 1013.9 1013.6 0.0
03/07:30am 15.8 14.3 9.2 65 3.4 S 7 11 4 6 1013.7 1013.4 0.0
03/07:00am 13.2 11.9 9.8 80 1.8 S 7 11 4 6 1013.2 1012.9 0.0
03/06:30am 11.0 9.1 8.9 87 1.0 SSW 9 11 5 6 1013.0 1012.7 0.0
03/06:00am 10.1 7.9 8.0 87 1.0 SW 9 11 5 6 1012.8 1012.5 0.0
03/05:30am 10.6 8.5 8.2 85 1.2 SW 9 11 5 6 1012.3 1012.0 0.0
03/05:00am 11.3 9.3 8.5 83 1.4 WSW 9 11 5 6 1012.1 1011.8 0.0
03/04:30am 12.0 10.4 8.8 81 1.6 SW 7 9 4 5 1011.8 1011.5 0.0
03/04:00am 12.8 10.5 9.1 78 1.9 SW 11 13 6 7 1011.6 1011.3 0.0
03/03:30am 13.3 11.4 9.0 75 2.2 SSW 9 13 5 7 1011.6 1011.3 0.0
03/03:00am 13.7 12.0 8.5 71 2.6 SSW 7 9 4 5 1011.9 1011.6 0.0
03/02:30am 15.5 13.0 9.6 68 3.1 S 13 17 7 9 1011.9 1011.6 0.0
03/02:00am 15.4 13.2 9.3 67 3.2 S 11 13 6 7 1012.1 1011.8 0.0
03/01:30am 16.5 14.6 9.2 62 3.8 S 9 13 5 7 1012.3 1012.0 0.0
03/01:00am 17.9 14.9 9.3 57 4.5 S 15 19 8 10 1012.3 1012.0 0.0
03/12:30am 18.4 14.8 8.4 52 5.2 S 17 20 9 11 1012.4 1012.1 0.0
03/12:00am 17.8 14.6 6.7 48 5.5 SSE 13 15 7 8 1012.4 1012.1 0.0
 
Date/Time
EDT
Temp
°C
App
Temp
°C
Dew
Point
°C
Rel
Hum
%
Delta-T
°C
Wind Press
QNH
hPa
Press
MSL
hPa
Rain since
9am
mm
Dir  Spd
km/h
Gust
km/h
Spd
kts
Gust
kts
02/11:30pm 18.4 14.3 4.2 39 6.8 SSW 15 20 8 11 1012.2 1011.9 0.0
02/11:00pm 19.8 15.6 3.9 35 7.6 SW 15 19 8 10 1012.2 1011.9 0.0
02/10:30pm 20.6 16.1 4.2 34 7.9 SW 17 19 9 10 1012.1 1011.8 0.0
02/10:00pm 19.1 15.5 4.8 39 6.9 SW 13 17 7 9 1012.1 1011.8 0.0
02/09:30pm 20.3 16.3 5.1 37 7.5 WSW 15 17 8 9 1012.0 1011.7 0.0
02/09:00pm 21.5 18.2 4.6 33 8.3 WSW 11 13 6 7 1011.6 1011.3 0.0
02/08:30pm 23.5 19.8 4.5 29 9.4 W 13 15 7 8 1011.4 1011.1 0.0
02/08:00pm 25.9 21.7 3.8 24 11.0 WSW 15 20 8 11 1011.0 1010.7 0.0
02/07:30pm 26.4 21.4 3.6 23 11.4 WSW 19 24 10 13 1010.7 1010.3 0.0
02/07:00pm 28.0 23.3 3.0 20 12.5 W 17 26 9 14 1010.5 1010.1 0.0
02/06:30pm 29.4 24.0 2.6 18 13.4 WSW 20 32 11 17 1010.2 1009.8 0.0
02/06:00pm 29.0 23.8 2.3 18 13.2 W 19 28 10 15 1010.1 1009.7 0.0
02/05:30pm 28.4 22.9 1.8 18 13.0 WSW 20 28 11 15 1010.0 1009.6 0.0
02/05:00pm 30.5 25.2 1.9 16 14.2 W 19 26 10 14 1010.1 1009.7 0.0
02/04:30pm 29.1 23.4 0.7 16 13.7 WSW 20 32 11 17 1010.3 1009.9 0.0
02/04:00pm 29.9 23.8 0.5 15 14.2 W 22 32 12 17 1010.4 1010.0 0.0
02/03:30pm 29.6 24.0 0.2 15 14.1 W 19 32 10 17 1010.3 1009.9 0.0
02/03:00pm 29.6 23.5 0.2 15 14.1 WSW 22 35 12 19 1010.5 1010.1 0.0
02/02:30pm 30.1 24.4 0.6 15 14.3 WSW 20 32 11 17 1010.6 1010.2 0.0
02/02:00pm 29.8 23.5 1.3 16 14.0 WSW 24 39 13 21 1010.9 1010.6 0.0
02/01:30pm 29.3 23.3 0.9 16 13.8 W 22 33 12 18 1011.1 1010.8 0.0
02/01:00pm 29.0 23.3 0.7 16 13.6 W 20 32 11 17 1011.2 1010.9 0.0
02/12:30pm 28.4 22.3 0.2 16 13.4 W 22 39 12 21 1011.3 1011.0 0.0
02/12:00pm 27.2 20.9 -0.8 16 13.0 W 22 37 12 20 1011.4 1011.1 0.0
02/11:30am 26.5 20.0 0.3 18 12.3 WSW 24 33 13 18 1011.2 1010.9 0.0
02/11:00am 25.8 20.3 1.8 21 11.5 WSW 20 32 11 17 1011.0 1010.7 0.0
02/10:30am 25.0 19.6 2.4 23 10.9 WSW 20 32 11 17 1011.0 1010.7 0.0
02/10:00am 24.3 19.5 4.6 28 9.9 WSW 19 30 10 16 1011.0 1010.7 0.0
02/09:30am 22.7 17.6 6.0 34 8.5 WSW 22 28 12 15 1010.7 1010.3 0.0
02/09:00am 21.7 18.5 8.6 43 7.0 WSW 15 19 8 10 1010.6 1010.2 0.0
02/08:30am 19.4 15.4 8.4 49 5.7 WSW 19 24 10 13 1010.3 1009.9 0.0
02/08:00am 17.5 13.8 8.1 54 4.8 WSW 17 20 9 11 1009.9 1009.5 0.0
02/07:30am 16.0 12.3 8.0 59 4.0 WSW 17 24 9 13 1009.3 1008.9 0.0
02/07:00am 15.3 12.0 6.6 56 4.3 W 13 17 7 9 1008.7 1008.3 0.0
02/06:30am 14.1 11.3 5.2 55 4.2 WNW 9 11 5 6 1008.1 1007.7 0.0
02/06:00am 13.1 9.5 4.8 57 3.9 W 13 15 7 8 1007.3 1006.9 0.0
02/05:30am 13.9 10.3 4.8 54 4.2 W 13 15 7 8 1007.1 1006.7 0.0
02/05:00am 14.8 11.1 4.2 49 4.9 W 13 15 7 8 1007.0 1006.6 0.0
02/04:30am 15.6 12.2 4.0 46 5.4 W 11 13 6 7 1006.8 1006.4 0.0
02/04:00am 17.3 13.4 3.2 39 6.5 WNW 13 17 7 9 1006.8 1006.4 0.0
02/03:30am 18.4 13.7 3.1 36 7.1 WNW 17 22 9 12 1006.9 1006.5 0.0
02/03:00am 19.2 14.9 3.0 34 7.6 WNW 15 20 8 11 1006.9 1006.5 0.0
02/02:30am 19.7 15.4 3.0 33 7.8 WNW 15 20 8 11 1007.0 1006.6 0.0
02/02:00am 19.6 15.5 4.1 36 7.5 WNW 15 17 8 9 1006.9 1006.5 0.0
02/01:30am 20.1 16.0 4.6 36 7.5 NW 15 17 8 9 1006.9 1006.5 0.0
02/01:00am 20.1 16.7 5.7 39 7.2 WNW 13 17 7 9 1007.1 1006.7 0.0
02/12:30am 20.1 17.0 5.7 39 7.2 WNW 11 17 6 9 1007.0 1006.6 0.0
02/12:00am 21.3 17.7 5.2 35 8.0 NW 13 19 7 10 1007.0 1006.6 0.0
 
Date/Time
EDT
Temp
°C
App
Temp
°C
Dew
Point
°C
Rel
Hum
%
Delta-T
°C
Wind Press
QNH
hPa
Press
MSL
hPa
Rain since
9am
mm
Dir  Spd
km/h
Gust
km/h
Spd
kts
Gust
kts
01/11:30pm 20.6 17.4 5.0 36 7.7 NW 11 13 6 7 1006.6 1006.2 0.0

Other Formats:

Comma delimited format used in spreadsheet applications
http://www.bom.gov.au/fwo/IDN60801/IDN60801.95869.axf

JavaScript Object Notation format (JSON) in row-major order
http://www.bom.gov.au/fwo/IDN60801/IDN60801.95869.json